sensor_id;sensor_type;location;lat;lon;timestamp;P1;durP1;ratioP1;P2;durP2;ratioP2
15043;SDS011;7619;48.562;8.910;2022-07-29T00:01:01;7.47;;;6.77;;
15043;SDS011;7619;48.562;8.910;2022-07-29T00:03:30;7.13;;;5.93;;
15043;SDS011;7619;48.562;8.910;2022-07-29T00:05:59;8.80;;;6.40;;
15043;SDS011;7619;48.562;8.910;2022-07-29T00:08:27;7.03;;;6.20;;
15043;SDS011;7619;48.562;8.910;2022-07-29T00:10:57;5.90;;;5.30;;
15043;SDS011;7619;48.562;8.910;2022-07-29T00:13:24;8.03;;;6.00;;
15043;SDS011;7619;48.562;8.910;2022-07-29T00:15:53;7.90;;;6.37;;
15043;SDS011;7619;48.562;8.910;2022-07-29T00:18:22;7.57;;;6.40;;
15043;SDS011;7619;48.562;8.910;2022-07-29T00:20:51;10.20;;;6.77;;
15043;SDS011;7619;48.562;8.910;2022-07-29T00:23:19;7.50;;;6.67;;
15043;SDS011;7619;48.562;8.910;2022-07-29T00:25:48;8.07;;;6.73;;
15043;SDS011;7619;48.562;8.910;2022-07-29T00:28:16;9.20;;;6.83;;
15043;SDS011;7619;48.562;8.910;2022-07-29T00:30:44;8.13;;;6.53;;
15043;SDS011;7619;48.562;8.910;2022-07-29T00:33:13;6.93;;;6.30;;
15043;SDS011;7619;48.562;8.910;2022-07-29T00:35:42;8.50;;;7.60;;
15043;SDS011;7619;48.562;8.910;2022-07-29T00:38:11;8.07;;;6.70;;
15043;SDS011;7619;48.562;8.910;2022-07-29T00:40:41;9.17;;;5.80;;
15043;SDS011;7619;48.562;8.910;2022-07-29T00:43:11;6.93;;;6.27;;
15043;SDS011;7619;48.562;8.910;2022-07-29T00:45:40;7.93;;;5.93;;
15043;SDS011;7619;48.562;8.910;2022-07-29T00:48:09;7.20;;;6.17;;
15043;SDS011;7619;48.562;8.910;2022-07-29T00:50:38;8.83;;;5.70;;
15043;SDS011;7619;48.562;8.910;2022-07-29T00:53:07;6.57;;;5.90;;
15043;SDS011;7619;48.562;8.910;2022-07-29T00:55:38;7.50;;;5.93;;
15043;SDS011;7619;48.562;8.910;2022-07-29T00:58:07;7.80;;;6.40;;
15043;SDS011;7619;48.562;8.910;2022-07-29T01:00:35;7.20;;;6.50;;
15043;SDS011;7619;48.562;8.910;2022-07-29T01:03:06;7.43;;;6.73;;
15043;SDS011;7619;48.562;8.910;2022-07-29T01:05:35;7.50;;;6.77;;
15043;SDS011;7619;48.562;8.910;2022-07-29T01:08:05;8.17;;;7.33;;
15043;SDS011;7619;48.562;8.910;2022-07-29T01:10:34;7.07;;;6.47;;
15043;SDS011;7619;48.562;8.910;2022-07-29T01:13:04;9.67;;;7.63;;
15043;SDS011;7619;48.562;8.910;2022-07-29T01:15:34;8.23;;;7.43;;
15043;SDS011;7619;48.562;8.910;2022-07-29T01:18:08;7.93;;;7.23;;
15043;SDS011;7619;48.562;8.910;2022-07-29T01:20:54;9.57;;;6.57;;
15043;SDS011;7619;48.562;8.910;2022-07-29T01:23:26;6.70;;;6.03;;
15043;SDS011;7619;48.562;8.910;2022-07-29T01:29:07;7.03;;;5.80;;
15043;SDS011;7619;48.562;8.910;2022-07-29T01:31:43;6.50;;;5.83;;
15043;SDS011;7619;48.562;8.910;2022-07-29T01:34:17;7.97;;;6.37;;
15043;SDS011;7619;48.562;8.910;2022-07-29T01:36:50;10.03;;;7.60;;
15043;SDS011;7619;48.562;8.910;2022-07-29T01:39:21;9.70;;;7.77;;
15043;SDS011;7619;48.562;8.910;2022-07-29T01:41:55;8.57;;;6.13;;
15043;SDS011;7619;48.562;8.910;2022-07-29T01:44:29;7.50;;;6.70;;
15043;SDS011;7619;48.562;8.910;2022-07-29T01:46:57;9.37;;;6.90;;
15043;SDS011;7619;48.562;8.910;2022-07-29T01:49:30;7.67;;;6.87;;
15043;SDS011;7619;48.562;8.910;2022-07-29T01:52:01;7.57;;;6.27;;
15043;SDS011;7619;48.562;8.910;2022-07-29T01:54:34;9.57;;;7.37;;
15043;SDS011;7619;48.562;8.910;2022-07-29T01:57:04;6.90;;;6.27;;
15043;SDS011;7619;48.562;8.910;2022-07-29T01:59:37;8.73;;;7.00;;
15043;SDS011;7619;48.562;8.910;2022-07-29T02:02:06;7.37;;;6.57;;
15043;SDS011;7619;48.562;8.910;2022-07-29T02:04:37;6.90;;;6.17;;
15043;SDS011;7619;48.562;8.910;2022-07-29T02:07:11;7.67;;;6.87;;
15043;SDS011;7619;48.562;8.910;2022-07-29T02:09:42;9.80;;;6.67;;
15043;SDS011;7619;48.562;8.910;2022-07-29T02:12:13;8.43;;;5.93;;
15043;SDS011;7619;48.562;8.910;2022-07-29T02:14:44;7.57;;;5.90;;
15043;SDS011;7619;48.562;8.910;2022-07-29T02:17:16;7.43;;;5.50;;
15043;SDS011;7619;48.562;8.910;2022-07-29T02:19:47;7.63;;;5.43;;
15043;SDS011;7619;48.562;8.910;2022-07-29T02:22:16;6.10;;;5.53;;
15043;SDS011;7619;48.562;8.910;2022-07-29T02:24:47;8.00;;;6.93;;
15043;SDS011;7619;48.562;8.910;2022-07-29T02:27:18;8.40;;;7.23;;
15043;SDS011;7619;48.562;8.910;2022-07-29T02:29:48;6.93;;;6.23;;
15043;SDS011;7619;48.562;8.910;2022-07-29T02:32:19;7.80;;;7.10;;
15043;SDS011;7619;48.562;8.910;2022-07-29T02:34:48;7.67;;;6.87;;
15043;SDS011;7619;48.562;8.910;2022-07-29T02:37:18;7.07;;;6.37;;
15043;SDS011;7619;48.562;8.910;2022-07-29T02:39:48;7.13;;;6.53;;
15043;SDS011;7619;48.562;8.910;2022-07-29T02:42:19;10.10;;;6.77;;
15043;SDS011;7619;48.562;8.910;2022-07-29T02:44:51;5.67;;;5.10;;
15043;SDS011;7619;48.562;8.910;2022-07-29T02:47:21;6.60;;;5.80;;
15043;SDS011;7619;48.562;8.910;2022-07-29T02:49:53;7.70;;;6.87;;
15043;SDS011;7619;48.562;8.910;2022-07-29T02:52:26;7.07;;;6.47;;
15043;SDS011;7619;48.562;8.910;2022-07-29T02:54:58;7.47;;;6.40;;
15043;SDS011;7619;48.562;8.910;2022-07-29T02:57:39;9.93;;;8.07;;
15043;SDS011;7619;48.562;8.910;2022-07-29T03:00:09;9.50;;;7.47;;
15043;SDS011;7619;48.562;8.910;2022-07-29T03:02:42;7.83;;;6.50;;
15043;SDS011;7619;48.562;8.910;2022-07-29T03:05:15;6.30;;;5.80;;
15043;SDS011;7619;48.562;8.910;2022-07-29T03:07:45;6.67;;;5.87;;
15043;SDS011;7619;48.562;8.910;2022-07-29T03:10:16;7.17;;;5.93;;
15043;SDS011;7619;48.562;8.910;2022-07-29T03:12:47;10.87;;;8.43;;
15043;SDS011;7619;48.562;8.910;2022-07-29T03:15:17;7.03;;;6.30;;
15043;SDS011;7619;48.562;8.910;2022-07-29T03:17:46;9.27;;;6.77;;
15043;SDS011;7619;48.562;8.910;2022-07-29T03:20:16;7.90;;;6.87;;
15043;SDS011;7619;48.562;8.910;2022-07-29T03:22:45;8.03;;;6.93;;
15043;SDS011;7619;48.562;8.910;2022-07-29T03:25:15;12.47;;;8.13;;
15043;SDS011;7619;48.562;8.910;2022-07-29T03:27:45;8.93;;;7.50;;
15043;SDS011;7619;48.562;8.910;2022-07-29T03:30:15;13.37;;;8.27;;
15043;SDS011;7619;48.562;8.910;2022-07-29T03:32:44;9.03;;;8.13;;
15043;SDS011;7619;48.562;8.910;2022-07-29T03:35:13;9.60;;;8.33;;
15043;SDS011;7619;48.562;8.910;2022-07-29T03:37:42;8.63;;;7.73;;
15043;SDS011;7619;48.562;8.910;2022-07-29T03:40:13;9.20;;;8.30;;
15043;SDS011;7619;48.562;8.910;2022-07-29T03:42:44;8.87;;;7.97;;
15043;SDS011;7619;48.562;8.910;2022-07-29T03:45:15;9.67;;;8.70;;
15043;SDS011;7619;48.562;8.910;2022-07-29T03:47:47;11.83;;;8.07;;
15043;SDS011;7619;48.562;8.910;2022-07-29T03:50:18;8.27;;;7.47;;
15043;SDS011;7619;48.562;8.910;2022-07-29T03:52:48;10.10;;;8.57;;
15043;SDS011;7619;48.562;8.910;2022-07-29T03:55:19;10.10;;;7.97;;
15043;SDS011;7619;48.562;8.910;2022-07-29T03:57:47;8.43;;;7.40;;
15043;SDS011;7619;48.562;8.910;2022-07-29T04:00:17;9.83;;;8.40;;
15043;SDS011;7619;48.562;8.910;2022-07-29T04:02:47;9.20;;;8.03;;
15043;SDS011;7619;48.562;8.910;2022-07-29T04:05:15;8.23;;;7.43;;
15043;SDS011;7619;48.562;8.910;2022-07-29T04:07:45;8.00;;;6.90;;
15043;SDS011;7619;48.562;8.910;2022-07-29T04:10:14;7.93;;;7.20;;
15043;SDS011;7619;48.562;8.910;2022-07-29T04:12:45;8.23;;;6.93;;
15043;SDS011;7619;48.562;8.910;2022-07-29T04:15:14;7.17;;;6.47;;
15043;SDS011;7619;48.562;8.910;2022-07-29T04:17:42;6.93;;;6.23;;
15043;SDS011;7619;48.562;8.910;2022-07-29T04:20:11;8.17;;;6.47;;
15043;SDS011;7619;48.562;8.910;2022-07-29T04:22:41;6.40;;;5.80;;
15043;SDS011;7619;48.562;8.910;2022-07-29T04:25:10;6.50;;;5.90;;
15043;SDS011;7619;48.562;8.910;2022-07-29T04:27:39;6.57;;;5.93;;
15043;SDS011;7619;48.562;8.910;2022-07-29T04:30:27;9.87;;;6.47;;
15043;SDS011;7619;48.562;8.910;2022-07-29T04:32:56;7.50;;;5.80;;
15043;SDS011;7619;48.562;8.910;2022-07-29T04:35:27;6.73;;;5.43;;
15043;SDS011;7619;48.562;8.910;2022-07-29T04:37:57;6.27;;;5.67;;
15043;SDS011;7619;48.562;8.910;2022-07-29T04:40:25;6.93;;;6.23;;
15043;SDS011;7619;48.562;8.910;2022-07-29T04:42:54;7.00;;;6.07;;
15043;SDS011;7619;48.562;8.910;2022-07-29T04:45:23;6.63;;;6.00;;
15043;SDS011;7619;48.562;8.910;2022-07-29T04:47:52;6.33;;;5.73;;
15043;SDS011;7619;48.562;8.910;2022-07-29T04:50:21;6.10;;;5.50;;
15043;SDS011;7619;48.562;8.910;2022-07-29T04:52:50;6.47;;;5.10;;
15043;SDS011;7619;48.562;8.910;2022-07-29T04:55:18;5.70;;;5.10;;
15043;SDS011;7619;48.562;8.910;2022-07-29T04:57:47;5.33;;;4.87;;
15043;SDS011;7619;48.562;8.910;2022-07-29T05:00:16;5.67;;;4.97;;
15043;SDS011;7619;48.562;8.910;2022-07-29T05:02:45;5.07;;;4.60;;
15043;SDS011;7619;48.562;8.910;2022-07-29T05:05:14;4.27;;;3.97;;
15043;SDS011;7619;48.562;8.910;2022-07-29T05:07:43;6.87;;;4.23;;
15043;SDS011;7619;48.562;8.910;2022-07-29T05:10:12;4.90;;;4.30;;
15043;SDS011;7619;48.562;8.910;2022-07-29T05:12:41;4.67;;;3.80;;
15043;SDS011;7619;48.562;8.910;2022-07-29T05:15:10;3.50;;;3.20;;
15043;SDS011;7619;48.562;8.910;2022-07-29T05:17:39;3.50;;;3.17;;
15043;SDS011;7619;48.562;8.910;2022-07-29T05:20:09;5.77;;;4.57;;
15043;SDS011;7619;48.562;8.910;2022-07-29T05:22:38;3.20;;;2.90;;
15043;SDS011;7619;48.562;8.910;2022-07-29T05:25:07;3.40;;;3.10;;
15043;SDS011;7619;48.562;8.910;2022-07-29T05:27:36;3.90;;;3.50;;
15043;SDS011;7619;48.562;8.910;2022-07-29T05:30:06;5.27;;;3.43;;
15043;SDS011;7619;48.562;8.910;2022-07-29T05:32:36;3.50;;;3.20;;
15043;SDS011;7619;48.562;8.910;2022-07-29T05:35:06;3.97;;;3.67;;
15043;SDS011;7619;48.562;8.910;2022-07-29T05:37:36;6.07;;;3.30;;
15043;SDS011;7619;48.562;8.910;2022-07-29T05:40:06;3.40;;;3.10;;
15043;SDS011;7619;48.562;8.910;2022-07-29T05:42:36;4.20;;;3.80;;
15043;SDS011;7619;48.562;8.910;2022-07-29T05:45:05;3.87;;;3.07;;
15043;SDS011;7619;48.562;8.910;2022-07-29T05:47:35;4.37;;;3.10;;
15043;SDS011;7619;48.562;8.910;2022-07-29T05:50:05;2.80;;;2.60;;
15043;SDS011;7619;48.562;8.910;2022-07-29T05:52:35;3.60;;;3.27;;
15043;SDS011;7619;48.562;8.910;2022-07-29T05:55:04;3.50;;;3.10;;
15043;SDS011;7619;48.562;8.910;2022-07-29T05:57:36;4.07;;;3.13;;
15043;SDS011;7619;48.562;8.910;2022-07-29T06:00:06;3.83;;;3.53;;
15043;SDS011;7619;48.562;8.910;2022-07-29T06:02:37;4.87;;;3.00;;
15043;SDS011;7619;48.562;8.910;2022-07-29T06:05:06;3.30;;;3.00;;
15043;SDS011;7619;48.562;8.910;2022-07-29T06:07:35;3.57;;;3.27;;
15043;SDS011;7619;48.562;8.910;2022-07-29T06:10:05;5.00;;;2.77;;
15043;SDS011;7619;48.562;8.910;2022-07-29T06:12:33;3.00;;;2.80;;
15043;SDS011;7619;48.562;8.910;2022-07-29T06:15:02;3.60;;;2.87;;
15043;SDS011;7619;48.562;8.910;2022-07-29T06:17:32;2.70;;;2.50;;
15043;SDS011;7619;48.562;8.910;2022-07-29T06:20:01;2.90;;;2.70;;
15043;SDS011;7619;48.562;8.910;2022-07-29T06:22:31;2.73;;;2.53;;
15043;SDS011;7619;48.562;8.910;2022-07-29T06:25:01;6.13;;;2.93;;
15043;SDS011;7619;48.562;8.910;2022-07-29T06:27:29;2.70;;;2.50;;
15043;SDS011;7619;48.562;8.910;2022-07-29T06:32:33;3.60;;;2.40;;
15043;SDS011;7619;48.562;8.910;2022-07-29T06:35:05;2.87;;;2.67;;
15043;SDS011;7619;48.562;8.910;2022-07-29T06:37:33;3.87;;;3.10;;
15043;SDS011;7619;48.562;8.910;2022-07-29T06:40:11;2.70;;;2.50;;
15043;SDS011;7619;48.562;8.910;2022-07-29T06:43:08;3.47;;;2.90;;
15043;SDS011;7619;48.562;8.910;2022-07-29T06:45:37;2.80;;;2.60;;
15043;SDS011;7619;48.562;8.910;2022-07-29T06:48:07;3.27;;;2.83;;
15043;SDS011;7619;48.562;8.910;2022-07-29T06:50:36;2.83;;;2.63;;
15043;SDS011;7619;48.562;8.910;2022-07-29T06:53:06;3.27;;;2.97;;
15043;SDS011;7619;48.562;8.910;2022-07-29T06:55:34;3.23;;;2.93;;
15043;SDS011;7619;48.562;8.910;2022-07-29T06:58:04;3.43;;;3.13;;
15043;SDS011;7619;48.562;8.910;2022-07-29T07:00:34;3.80;;;2.67;;
15043;SDS011;7619;48.562;8.910;2022-07-29T07:03:02;3.10;;;2.80;;
15043;SDS011;7619;48.562;8.910;2022-07-29T07:05:31;3.10;;;2.80;;
15043;SDS011;7619;48.562;8.910;2022-07-29T07:08:00;2.60;;;2.40;;
15043;SDS011;7619;48.562;8.910;2022-07-29T07:10:29;2.50;;;2.20;;
15043;SDS011;7619;48.562;8.910;2022-07-29T07:12:58;3.23;;;2.93;;
15043;SDS011;7619;48.562;8.910;2022-07-29T07:15:36;3.50;;;3.07;;
15043;SDS011;7619;48.562;8.910;2022-07-29T07:18:05;2.90;;;2.70;;
15043;SDS011;7619;48.562;8.910;2022-07-29T07:20:34;3.70;;;3.23;;
15043;SDS011;7619;48.562;8.910;2022-07-29T07:23:03;3.80;;;2.90;;
15043;SDS011;7619;48.562;8.910;2022-07-29T07:25:32;2.90;;;2.70;;
15043;SDS011;7619;48.562;8.910;2022-07-29T07:28:01;2.93;;;2.73;;
15043;SDS011;7619;48.562;8.910;2022-07-29T07:30:29;3.10;;;2.83;;
15043;SDS011;7619;48.562;8.910;2022-07-29T07:32:59;3.43;;;2.37;;
15043;SDS011;7619;48.562;8.910;2022-07-29T07:35:28;4.03;;;2.63;;
15043;SDS011;7619;48.562;8.910;2022-07-29T07:37:56;2.57;;;2.37;;
15043;SDS011;7619;48.562;8.910;2022-07-29T07:40:25;3.10;;;2.80;;
15043;SDS011;7619;48.562;8.910;2022-07-29T07:42:54;2.50;;;2.30;;
15043;SDS011;7619;48.562;8.910;2022-07-29T07:45:23;3.00;;;2.70;;
15043;SDS011;7619;48.562;8.910;2022-07-29T07:47:52;2.73;;;2.53;;
15043;SDS011;7619;48.562;8.910;2022-07-29T07:50:21;3.23;;;2.80;;
15043;SDS011;7619;48.562;8.910;2022-07-29T07:52:50;2.83;;;2.63;;
15043;SDS011;7619;48.562;8.910;2022-07-29T07:55:21;2.70;;;2.50;;
15043;SDS011;7619;48.562;8.910;2022-07-29T07:57:49;2.40;;;2.20;;
15043;SDS011;7619;48.562;8.910;2022-07-29T08:00:18;3.00;;;2.30;;
15043;SDS011;7619;48.562;8.910;2022-07-29T08:02:49;2.80;;;2.47;;
15043;SDS011;7619;48.562;8.910;2022-07-29T08:05:18;4.13;;;2.97;;
15043;SDS011;7619;48.562;8.910;2022-07-29T08:07:47;4.43;;;2.50;;
15043;SDS011;7619;48.562;8.910;2022-07-29T08:10:17;3.37;;;2.90;;
15043;SDS011;7619;48.562;8.910;2022-07-29T08:13:06;2.60;;;2.40;;
15043;SDS011;7619;48.562;8.910;2022-07-29T08:15:34;2.53;;;2.33;;
15043;SDS011;7619;48.562;8.910;2022-07-29T08:18:03;3.17;;;2.83;;
15043;SDS011;7619;48.562;8.910;2022-07-29T08:20:32;3.33;;;2.57;;
15043;SDS011;7619;48.562;8.910;2022-07-29T08:23:02;3.07;;;2.87;;
15043;SDS011;7619;48.562;8.910;2022-07-29T08:25:30;3.53;;;2.47;;
15043;SDS011;7619;48.562;8.910;2022-07-29T08:30:35;3.00;;;2.77;;
15043;SDS011;7619;48.562;8.910;2022-07-29T08:35:40;4.10;;;3.20;;
15043;SDS011;7619;48.562;8.910;2022-07-29T08:40:45;2.67;;;2.47;;
15043;SDS011;7619;48.562;8.910;2022-07-29T08:43:14;2.87;;;2.50;;
15043;SDS011;7619;48.562;8.910;2022-07-29T08:45:44;2.73;;;2.50;;
15043;SDS011;7619;48.562;8.910;2022-07-29T08:48:16;3.30;;;2.60;;
15043;SDS011;7619;48.562;8.910;2022-07-29T08:50:44;3.60;;;2.13;;
15043;SDS011;7619;48.562;8.910;2022-07-29T08:53:15;2.37;;;2.17;;
15043;SDS011;7619;48.562;8.910;2022-07-29T08:55:45;4.30;;;2.63;;
15043;SDS011;7619;48.562;8.910;2022-07-29T08:58:17;3.03;;;2.43;;
15043;SDS011;7619;48.562;8.910;2022-07-29T09:00:48;2.37;;;2.20;;
15043;SDS011;7619;48.562;8.910;2022-07-29T09:03:18;4.80;;;2.47;;
15043;SDS011;7619;48.562;8.910;2022-07-29T09:05:50;2.77;;;2.57;;
15043;SDS011;7619;48.562;8.910;2022-07-29T09:08:19;4.10;;;2.90;;
15043;SDS011;7619;48.562;8.910;2022-07-29T09:10:49;4.03;;;2.40;;
15043;SDS011;7619;48.562;8.910;2022-07-29T09:13:18;2.37;;;2.17;;
15043;SDS011;7619;48.562;8.910;2022-07-29T09:15:47;2.53;;;2.33;;
15043;SDS011;7619;48.562;8.910;2022-07-29T09:18:32;2.40;;;2.27;;
15043;SDS011;7619;48.562;8.910;2022-07-29T09:21:02;3.37;;;3.00;;
15043;SDS011;7619;48.562;8.910;2022-07-29T09:24:00;6.83;;;2.90;;
15043;SDS011;7619;48.562;8.910;2022-07-29T09:26:28;2.93;;;2.53;;
15043;SDS011;7619;48.562;8.910;2022-07-29T09:28:58;3.07;;;2.77;;
15043;SDS011;7619;48.562;8.910;2022-07-29T09:31:31;2.67;;;2.47;;
15043;SDS011;7619;48.562;8.910;2022-07-29T09:34:01;6.67;;;2.57;;
15043;SDS011;7619;48.562;8.910;2022-07-29T09:36:31;3.13;;;2.80;;
15043;SDS011;7619;48.562;8.910;2022-07-29T09:39:06;2.53;;;2.33;;
15043;SDS011;7619;48.562;8.910;2022-07-29T09:41:48;2.83;;;2.60;;
15043;SDS011;7619;48.562;8.910;2022-07-29T09:44:19;5.27;;;3.43;;
15043;SDS011;7619;48.562;8.910;2022-07-29T09:46:56;6.47;;;4.77;;
15043;SDS011;7619;48.562;8.910;2022-07-29T09:49:25;2.77;;;2.50;;
15043;SDS011;7619;48.562;8.910;2022-07-29T09:52:04;3.00;;;2.80;;
15043;SDS011;7619;48.562;8.910;2022-07-29T09:54:35;2.60;;;2.40;;
15043;SDS011;7619;48.562;8.910;2022-07-29T09:57:05;3.03;;;2.77;;
15043;SDS011;7619;48.562;8.910;2022-07-29T09:59:38;3.03;;;2.40;;
15043;SDS011;7619;48.562;8.910;2022-07-29T10:02:11;2.40;;;2.20;;
15043;SDS011;7619;48.562;8.910;2022-07-29T10:04:40;2.90;;;2.60;;
15043;SDS011;7619;48.562;8.910;2022-07-29T10:07:18;2.70;;;2.50;;
15043;SDS011;7619;48.562;8.910;2022-07-29T10:09:50;4.27;;;2.80;;
15043;SDS011;7619;48.562;8.910;2022-07-29T10:12:21;2.70;;;2.50;;
15043;SDS011;7619;48.562;8.910;2022-07-29T10:14:51;4.20;;;2.30;;
15043;SDS011;7619;48.562;8.910;2022-07-29T10:17:28;2.67;;;2.30;;
15043;SDS011;7619;48.562;8.910;2022-07-29T10:19:57;6.30;;;2.50;;
15043;SDS011;7619;48.562;8.910;2022-07-29T10:22:34;3.00;;;2.20;;
15043;SDS011;7619;48.562;8.910;2022-07-29T10:25:04;3.63;;;2.63;;
15043;SDS011;7619;48.562;8.910;2022-07-29T10:27:34;2.40;;;2.20;;
15043;SDS011;7619;48.562;8.910;2022-07-29T10:30:03;3.37;;;2.77;;
15043;SDS011;7619;48.562;8.910;2022-07-29T10:32:48;4.23;;;2.93;;
15043;SDS011;7619;48.562;8.910;2022-07-29T10:38:33;2.63;;;2.43;;
15043;SDS011;7619;48.562;8.910;2022-07-29T10:41:26;2.93;;;2.73;;
15043;SDS011;7619;48.562;8.910;2022-07-29T10:44:01;2.97;;;2.77;;
15043;SDS011;7619;48.562;8.910;2022-07-29T10:46:35;3.33;;;2.33;;
15043;SDS011;7619;48.562;8.910;2022-07-29T10:49:06;3.60;;;2.07;;
15043;SDS011;7619;48.562;8.910;2022-07-29T10:51:56;6.67;;;2.43;;
15043;SDS011;7619;48.562;8.910;2022-07-29T10:57:28;3.70;;;3.07;;
15043;SDS011;7619;48.562;8.910;2022-07-29T11:02:56;3.47;;;2.30;;
15043;SDS011;7619;48.562;8.910;2022-07-29T11:05:27;3.80;;;2.10;;
15043;SDS011;7619;48.562;8.910;2022-07-29T11:10:47;3.63;;;1.93;;
15043;SDS011;7619;48.562;8.910;2022-07-29T11:16:18;4.70;;;1.80;;
15043;SDS011;7619;48.562;8.910;2022-07-29T11:21:37;2.30;;;2.10;;
15043;SDS011;7619;48.562;8.910;2022-07-29T11:24:13;5.07;;;2.20;;
15043;SDS011;7619;48.562;8.910;2022-07-29T11:26:43;3.13;;;2.23;;
15043;SDS011;7619;48.562;8.910;2022-07-29T11:29:18;8.20;;;3.43;;
15043;SDS011;7619;48.562;8.910;2022-07-29T11:31:50;6.93;;;3.97;;
15043;SDS011;7619;48.562;8.910;2022-07-29T11:34:23;2.70;;;2.50;;
15043;SDS011;7619;48.562;8.910;2022-07-29T11:39:43;3.87;;;3.37;;
15043;SDS011;7619;48.562;8.910;2022-07-29T11:45:20;6.63;;;2.80;;
15043;SDS011;7619;48.562;8.910;2022-07-29T11:47:53;4.97;;;2.73;;
15043;SDS011;7619;48.562;8.910;2022-07-29T11:50:31;4.53;;;3.00;;
15043;SDS011;7619;48.562;8.910;2022-07-29T11:53:02;4.43;;;3.50;;
15043;SDS011;7619;48.562;8.910;2022-07-29T11:55:33;6.93;;;3.53;;
15043;SDS011;7619;48.562;8.910;2022-07-29T11:58:05;11.23;;;2.90;;
15043;SDS011;7619;48.562;8.910;2022-07-29T12:00:35;7.63;;;3.27;;
15043;SDS011;7619;48.562;8.910;2022-07-29T12:03:06;4.87;;;3.20;;
15043;SDS011;7619;48.562;8.910;2022-07-29T12:05:39;5.43;;;2.97;;
15043;SDS011;7619;48.562;8.910;2022-07-29T12:08:12;4.00;;;3.03;;
15043;SDS011;7619;48.562;8.910;2022-07-29T12:10:44;4.10;;;2.93;;
15043;SDS011;7619;48.562;8.910;2022-07-29T12:13:14;5.70;;;3.60;;
15043;SDS011;7619;48.562;8.910;2022-07-29T12:15:51;3.90;;;2.57;;
15043;SDS011;7619;48.562;8.910;2022-07-29T12:18:19;9.27;;;3.13;;
15043;SDS011;7619;48.562;8.910;2022-07-29T12:20:49;3.10;;;2.40;;
15043;SDS011;7619;48.562;8.910;2022-07-29T12:23:18;3.63;;;2.83;;
15043;SDS011;7619;48.562;8.910;2022-07-29T12:25:48;3.37;;;2.83;;
15043;SDS011;7619;48.562;8.910;2022-07-29T12:28:16;3.60;;;2.70;;
15043;SDS011;7619;48.562;8.910;2022-07-29T12:30:47;4.97;;;2.50;;
15043;SDS011;7619;48.562;8.910;2022-07-29T12:33:18;4.30;;;2.07;;
15043;SDS011;7619;48.562;8.910;2022-07-29T12:35:47;2.50;;;2.30;;
15043;SDS011;7619;48.562;8.910;2022-07-29T12:38:18;4.43;;;2.77;;
15043;SDS011;7619;48.562;8.910;2022-07-29T12:40:48;2.73;;;2.07;;
15043;SDS011;7619;48.562;8.910;2022-07-29T12:43:19;2.73;;;2.53;;
15043;SDS011;7619;48.562;8.910;2022-07-29T12:45:49;2.77;;;2.20;;
15043;SDS011;7619;48.562;8.910;2022-07-29T12:48:18;1.77;;;1.67;;
15043;SDS011;7619;48.562;8.910;2022-07-29T12:51:00;2.17;;;2.03;;
15043;SDS011;7619;48.562;8.910;2022-07-29T12:53:32;3.47;;;2.00;;
15043;SDS011;7619;48.562;8.910;2022-07-29T12:56:01;3.27;;;2.10;;
15043;SDS011;7619;48.562;8.910;2022-07-29T12:58:30;3.53;;;2.57;;
15043;SDS011;7619;48.562;8.910;2022-07-29T13:01:04;3.60;;;2.43;;
15043;SDS011;7619;48.562;8.910;2022-07-29T13:03:43;3.40;;;2.60;;
15043;SDS011;7619;48.562;8.910;2022-07-29T13:06:33;2.90;;;2.67;;
15043;SDS011;7619;48.562;8.910;2022-07-29T13:09:13;3.90;;;2.57;;
15043;SDS011;7619;48.562;8.910;2022-07-29T13:11:44;3.40;;;2.83;;
15043;SDS011;7619;48.562;8.910;2022-07-29T13:14:29;3.50;;;2.50;;
15043;SDS011;7619;48.562;8.910;2022-07-29T13:17:02;4.40;;;3.00;;
15043;SDS011;7619;48.562;8.910;2022-07-29T13:19:34;4.37;;;2.93;;
15043;SDS011;7619;48.562;8.910;2022-07-29T13:22:06;2.40;;;2.20;;
15043;SDS011;7619;48.562;8.910;2022-07-29T13:24:45;3.70;;;2.73;;
15043;SDS011;7619;48.562;8.910;2022-07-29T13:27:19;4.60;;;2.20;;
15043;SDS011;7619;48.562;8.910;2022-07-29T13:29:46;3.80;;;2.77;;
15043;SDS011;7619;48.562;8.910;2022-07-29T13:32:17;3.00;;;2.70;;
15043;SDS011;7619;48.562;8.910;2022-07-29T13:34:47;2.97;;;2.77;;
15043;SDS011;7619;48.562;8.910;2022-07-29T13:37:14;2.67;;;2.17;;
15043;SDS011;7619;48.562;8.910;2022-07-29T13:39:43;2.80;;;2.60;;
15043;SDS011;7619;48.562;8.910;2022-07-29T13:42:13;2.73;;;2.50;;
15043;SDS011;7619;48.562;8.910;2022-07-29T13:44:42;3.23;;;2.53;;
15043;SDS011;7619;48.562;8.910;2022-07-29T13:47:11;3.33;;;3.03;;
15043;SDS011;7619;48.562;8.910;2022-07-29T13:49:42;3.00;;;2.70;;
15043;SDS011;7619;48.562;8.910;2022-07-29T13:52:11;4.83;;;2.83;;
15043;SDS011;7619;48.562;8.910;2022-07-29T13:54:40;3.00;;;2.40;;
15043;SDS011;7619;48.562;8.910;2022-07-29T13:57:09;3.93;;;2.77;;
15043;SDS011;7619;48.562;8.910;2022-07-29T13:59:39;3.30;;;2.87;;
15043;SDS011;7619;48.562;8.910;2022-07-29T14:02:09;3.70;;;3.40;;
15043;SDS011;7619;48.562;8.910;2022-07-29T14:04:39;3.03;;;2.60;;
15043;SDS011;7619;48.562;8.910;2022-07-29T14:07:08;3.30;;;3.00;;
15043;SDS011;7619;48.562;8.910;2022-07-29T14:09:37;4.33;;;2.77;;
15043;SDS011;7619;48.562;8.910;2022-07-29T14:12:07;3.00;;;2.70;;
15043;SDS011;7619;48.562;8.910;2022-07-29T14:14:37;2.80;;;2.60;;
15043;SDS011;7619;48.562;8.910;2022-07-29T14:17:05;3.33;;;2.80;;
15043;SDS011;7619;48.562;8.910;2022-07-29T14:19:33;3.17;;;2.27;;
15043;SDS011;7619;48.562;8.910;2022-07-29T14:22:04;3.00;;;2.70;;
15043;SDS011;7619;48.562;8.910;2022-07-29T14:24:34;3.20;;;2.70;;
15043;SDS011;7619;48.562;8.910;2022-07-29T14:27:04;3.43;;;3.13;;
15043;SDS011;7619;48.562;8.910;2022-07-29T14:29:34;2.77;;;2.57;;
15043;SDS011;7619;48.562;8.910;2022-07-29T14:32:03;3.40;;;2.80;;
15043;SDS011;7619;48.562;8.910;2022-07-29T14:34:33;4.20;;;2.73;;
15043;SDS011;7619;48.562;8.910;2022-07-29T14:37:02;3.00;;;2.77;;
15043;SDS011;7619;48.562;8.910;2022-07-29T14:39:32;4.40;;;2.93;;
15043;SDS011;7619;48.562;8.910;2022-07-29T14:42:02;3.73;;;3.43;;
15043;SDS011;7619;48.562;8.910;2022-07-29T14:44:31;4.67;;;3.00;;
15043;SDS011;7619;48.562;8.910;2022-07-29T14:47:00;2.97;;;2.70;;
15043;SDS011;7619;48.562;8.910;2022-07-29T14:49:29;3.60;;;2.83;;
15043;SDS011;7619;48.562;8.910;2022-07-29T14:51:58;3.50;;;3.20;;
15043;SDS011;7619;48.562;8.910;2022-07-29T14:54:27;3.30;;;2.77;;
15043;SDS011;7619;48.562;8.910;2022-07-29T14:56:56;3.77;;;3.03;;
15043;SDS011;7619;48.562;8.910;2022-07-29T14:59:25;2.77;;;2.57;;
15043;SDS011;7619;48.562;8.910;2022-07-29T15:01:54;3.67;;;2.90;;
15043;SDS011;7619;48.562;8.910;2022-07-29T15:04:23;3.03;;;2.70;;
15043;SDS011;7619;48.562;8.910;2022-07-29T15:06:52;3.53;;;3.20;;
15043;SDS011;7619;48.562;8.910;2022-07-29T15:09:21;3.50;;;2.47;;
15043;SDS011;7619;48.562;8.910;2022-07-29T15:11:50;3.00;;;2.70;;
15043;SDS011;7619;48.562;8.910;2022-07-29T15:14:18;2.87;;;2.67;;
15043;SDS011;7619;48.562;8.910;2022-07-29T15:16:48;2.90;;;2.70;;
15043;SDS011;7619;48.562;8.910;2022-07-29T15:19:15;2.50;;;2.30;;
15043;SDS011;7619;48.562;8.910;2022-07-29T15:21:44;3.57;;;2.53;;
15043;SDS011;7619;48.562;8.910;2022-07-29T15:24:13;2.97;;;2.73;;
15043;SDS011;7619;48.562;8.910;2022-07-29T15:26:42;2.90;;;2.67;;
15043;SDS011;7619;48.562;8.910;2022-07-29T15:29:12;2.97;;;2.77;;
15043;SDS011;7619;48.562;8.910;2022-07-29T15:31:41;2.90;;;2.60;;
15043;SDS011;7619;48.562;8.910;2022-07-29T15:34:11;4.00;;;2.60;;
15043;SDS011;7619;48.562;8.910;2022-07-29T15:36:40;3.83;;;2.80;;
15043;SDS011;7619;48.562;8.910;2022-07-29T15:39:08;3.60;;;3.20;;
15043;SDS011;7619;48.562;8.910;2022-07-29T15:41:38;2.70;;;2.50;;
15043;SDS011;7619;48.562;8.910;2022-07-29T15:44:06;2.73;;;2.53;;
15043;SDS011;7619;48.562;8.910;2022-07-29T15:46:35;11.37;;;9.50;;
15043;SDS011;7619;48.562;8.910;2022-07-29T15:49:22;8.20;;;6.83;;
15043;SDS011;7619;48.562;8.910;2022-07-29T15:51:54;6.87;;;6.17;;
15043;SDS011;7619;48.562;8.910;2022-07-29T15:54:23;5.23;;;4.03;;
15043;SDS011;7619;48.562;8.910;2022-07-29T15:56:53;2.60;;;2.40;;
15043;SDS011;7619;48.562;8.910;2022-07-29T15:59:23;3.03;;;2.70;;